sensor_id;sensor_type;location;lat;lon;timestamp;P1;durP1;ratioP1;P2;durP2;ratioP2
70216;SDS011;65567;55.684;37.570;2023-02-15T00:00:03;2.05;;;0.60;;
70216;SDS011;65567;55.684;37.570;2023-02-15T00:02:31;1.88;;;0.65;;
70216;SDS011;65567;55.684;37.570;2023-02-15T00:04:57;4.05;;;0.80;;
70216;SDS011;65567;55.684;37.570;2023-02-15T00:07:25;4.20;;;0.85;;
70216;SDS011;65567;55.684;37.570;2023-02-15T00:09:51;2.25;;;0.60;;
70216;SDS011;65567;55.684;37.570;2023-02-15T00:12:17;2.75;;;0.80;;
70216;SDS011;65567;55.684;37.570;2023-02-15T00:14:43;3.47;;;0.73;;
70216;SDS011;65567;55.684;37.570;2023-02-15T00:17:09;4.35;;;0.70;;
70216;SDS011;65567;55.684;37.570;2023-02-15T00:19:35;4.35;;;1.50;;
70216;SDS011;65567;55.684;37.570;2023-02-15T00:22:02;3.47;;;0.77;;
70216;SDS011;65567;55.684;37.570;2023-02-15T00:24:28;3.13;;;0.50;;
70216;SDS011;65567;55.684;37.570;2023-02-15T00:26:54;5.70;;;0.95;;
70216;SDS011;65567;55.684;37.570;2023-02-15T00:29:20;2.50;;;0.95;;
70216;SDS011;65567;55.684;37.570;2023-02-15T00:31:46;1.73;;;0.65;;
70216;SDS011;65567;55.684;37.570;2023-02-15T00:34:14;3.60;;;0.70;;
70216;SDS011;65567;55.684;37.570;2023-02-15T00:36:41;2.95;;;0.75;;
70216;SDS011;65567;55.684;37.570;2023-02-15T00:39:07;3.22;;;0.80;;
70216;SDS011;65567;55.684;37.570;2023-02-15T00:41:34;2.78;;;0.80;;
70216;SDS011;65567;55.684;37.570;2023-02-15T00:44:00;3.28;;;1.00;;
70216;SDS011;65567;55.684;37.570;2023-02-15T00:46:27;2.33;;;0.77;;
70216;SDS011;65567;55.684;37.570;2023-02-15T00:48:53;6.28;;;1.10;;
70216;SDS011;65567;55.684;37.570;2023-02-15T00:51:19;4.78;;;1.13;;
70216;SDS011;65567;55.684;37.570;2023-02-15T00:53:48;2.13;;;0.98;;
70216;SDS011;65567;55.684;37.570;2023-02-15T00:56:14;6.45;;;0.85;;
70216;SDS011;65567;55.684;37.570;2023-02-15T00:58:41;5.78;;;1.17;;
70216;SDS011;65567;55.684;37.570;2023-02-15T01:01:08;3.47;;;1.00;;
70216;SDS011;65567;55.684;37.570;2023-02-15T01:03:36;3.85;;;0.90;;
70216;SDS011;65567;55.684;37.570;2023-02-15T01:06:02;3.05;;;0.70;;
70216;SDS011;65567;55.684;37.570;2023-02-15T01:08:29;3.72;;;0.90;;
70216;SDS011;65567;55.684;37.570;2023-02-15T01:10:56;2.40;;;0.75;;
70216;SDS011;65567;55.684;37.570;2023-02-15T01:13:22;3.47;;;0.93;;
70216;SDS011;65567;55.684;37.570;2023-02-15T01:15:54;6.03;;;1.65;;
70216;SDS011;65567;55.684;37.570;2023-02-15T01:18:21;5.15;;;0.88;;
70216;SDS011;65567;55.684;37.570;2023-02-15T01:20:47;3.03;;;1.05;;
70216;SDS011;65567;55.684;37.570;2023-02-15T01:23:14;4.30;;;0.90;;
70216;SDS011;65567;55.684;37.570;2023-02-15T01:25:40;3.42;;;0.80;;
70216;SDS011;65567;55.684;37.570;2023-02-15T01:28:06;4.60;;;0.85;;
70216;SDS011;65567;55.684;37.570;2023-02-15T01:30:33;2.63;;;0.68;;
70216;SDS011;65567;55.684;37.570;2023-02-15T01:32:59;3.70;;;0.95;;
70216;SDS011;65567;55.684;37.570;2023-02-15T01:35:28;4.50;;;1.10;;
70216;SDS011;65567;55.684;37.570;2023-02-15T01:37:55;3.35;;;0.80;;
70216;SDS011;65567;55.684;37.570;2023-02-15T01:40:22;4.47;;;0.77;;
70216;SDS011;65567;55.684;37.570;2023-02-15T01:42:52;4.80;;;1.02;;
70216;SDS011;65567;55.684;37.570;2023-02-15T01:47:55;5.13;;;1.02;;
70216;SDS011;65567;55.684;37.570;2023-02-15T01:50:45;1.92;;;0.70;;
70216;SDS011;65567;55.684;37.570;2023-02-15T01:55:54;4.47;;;1.10;;
70216;SDS011;65567;55.684;37.570;2023-02-15T01:58:23;3.40;;;0.90;;
70216;SDS011;65567;55.684;37.570;2023-02-15T02:00:51;3.83;;;0.90;;
70216;SDS011;65567;55.684;37.570;2023-02-15T02:03:20;3.88;;;0.90;;
70216;SDS011;65567;55.684;37.570;2023-02-15T02:05:57;4.65;;;0.90;;
70216;SDS011;65567;55.684;37.570;2023-02-15T02:08:24;3.45;;;0.90;;
70216;SDS011;65567;55.684;37.570;2023-02-15T02:10:50;4.05;;;0.70;;
70216;SDS011;65567;55.684;37.570;2023-02-15T02:13:16;3.78;;;0.95;;
70216;SDS011;65567;55.684;37.570;2023-02-15T02:34:54;3.03;;;0.82;;
70216;SDS011;65567;55.684;37.570;2023-02-15T02:37:48;3.33;;;0.87;;
70216;SDS011;65567;55.684;37.570;2023-02-15T02:40:25;3.92;;;1.00;;
70216;SDS011;65567;55.684;37.570;2023-02-15T02:43:21;3.40;;;0.70;;
70216;SDS011;65567;55.684;37.570;2023-02-15T02:46:13;3.63;;;0.90;;
70216;SDS011;65567;55.684;37.570;2023-02-15T02:48:45;6.53;;;1.00;;
70216;SDS011;65567;55.684;37.570;2023-02-15T02:51:13;3.72;;;1.20;;
70216;SDS011;65567;55.684;37.570;2023-02-15T02:53:45;3.03;;;0.70;;
70216;SDS011;65567;55.684;37.570;2023-02-15T02:56:18;2.83;;;1.00;;
70216;SDS011;65567;55.684;37.570;2023-02-15T03:01:54;4.30;;;1.02;;
70216;SDS011;65567;55.684;37.570;2023-02-15T03:04:29;3.42;;;0.90;;
70216;SDS011;65567;55.684;37.570;2023-02-15T03:07:01;5.72;;;1.00;;
70216;SDS011;65567;55.684;37.570;2023-02-15T03:09:33;5.95;;;1.20;;
70216;SDS011;65567;55.684;37.570;2023-02-15T03:12:08;3.50;;;1.20;;
70216;SDS011;65567;55.684;37.570;2023-02-15T03:14:35;4.30;;;1.05;;
70216;SDS011;65567;55.684;37.570;2023-02-15T03:17:02;5.25;;;1.42;;
70216;SDS011;65567;55.684;37.570;2023-02-15T03:19:31;5.20;;;1.35;;
70216;SDS011;65567;55.684;37.570;2023-02-15T03:22:10;3.10;;;1.33;;
70216;SDS011;65567;55.684;37.570;2023-02-15T03:27:27;3.45;;;0.98;;
70216;SDS011;65567;55.684;37.570;2023-02-15T03:30:00;5.38;;;1.20;;
70216;SDS011;65567;55.684;37.570;2023-02-15T03:32:29;2.92;;;1.05;;
70216;SDS011;65567;55.684;37.570;2023-02-15T03:34:58;2.08;;;1.25;;
70216;SDS011;65567;55.684;37.570;2023-02-15T03:37:29;3.38;;;1.20;;
70216;SDS011;65567;55.684;37.570;2023-02-15T03:43:15;3.10;;;1.50;;
70216;SDS011;65567;55.684;37.570;2023-02-15T03:45:49;3.22;;;0.93;;
70216;SDS011;65567;55.684;37.570;2023-02-15T03:48:22;7.38;;;1.15;;
70216;SDS011;65567;55.684;37.570;2023-02-15T03:51:03;3.75;;;1.20;;
70216;SDS011;65567;55.684;37.570;2023-02-15T03:53:51;5.00;;;1.20;;
70216;SDS011;65567;55.684;37.570;2023-02-15T03:56:19;3.50;;;0.85;;
70216;SDS011;65567;55.684;37.570;2023-02-15T03:58:46;6.38;;;1.42;;
70216;SDS011;65567;55.684;37.570;2023-02-15T04:04:21;3.80;;;1.10;;
70216;SDS011;65567;55.684;37.570;2023-02-15T04:06:59;9.23;;;1.23;;
70216;SDS011;65567;55.684;37.570;2023-02-15T04:09:26;5.97;;;1.13;;
70216;SDS011;65567;55.684;37.570;2023-02-15T04:12:10;7.38;;;1.20;;
70216;SDS011;65567;55.684;37.570;2023-02-15T04:14:36;4.50;;;1.05;;
70216;SDS011;65567;55.684;37.570;2023-02-15T04:17:21;3.72;;;1.17;;
70216;SDS011;65567;55.684;37.570;2023-02-15T04:19:47;4.07;;;0.88;;
70216;SDS011;65567;55.684;37.570;2023-02-15T04:22:32;2.88;;;0.80;;
70216;SDS011;65567;55.684;37.570;2023-02-15T04:25:16;2.78;;;0.60;;
70216;SDS011;65567;55.684;37.570;2023-02-15T04:27:52;4.50;;;1.05;;
70216;SDS011;65567;55.684;37.570;2023-02-15T04:30:21;4.43;;;1.30;;
70216;SDS011;65567;55.684;37.570;2023-02-15T04:32:48;4.15;;;0.77;;
70216;SDS011;65567;55.684;37.570;2023-02-15T04:35:14;4.25;;;1.20;;
70216;SDS011;65567;55.684;37.570;2023-02-15T04:37:41;4.28;;;1.50;;
70216;SDS011;65567;55.684;37.570;2023-02-15T04:40:09;6.68;;;1.42;;
70216;SDS011;65567;55.684;37.570;2023-02-15T04:42:37;8.15;;;1.35;;
70216;SDS011;65567;55.684;37.570;2023-02-15T04:45:03;3.85;;;1.20;;
70216;SDS011;65567;55.684;37.570;2023-02-15T04:47:29;5.90;;;1.10;;
70216;SDS011;65567;55.684;37.570;2023-02-15T04:49:56;2.95;;;1.23;;
70216;SDS011;65567;55.684;37.570;2023-02-15T04:52:22;3.95;;;0.90;;
70216;SDS011;65567;55.684;37.570;2023-02-15T04:54:48;4.20;;;1.10;;
70216;SDS011;65567;55.684;37.570;2023-02-15T04:57:14;5.45;;;1.17;;
70216;SDS011;65567;55.684;37.570;2023-02-15T04:59:40;2.80;;;1.10;;
70216;SDS011;65567;55.684;37.570;2023-02-15T05:02:06;5.65;;;1.23;;
70216;SDS011;65567;55.684;37.570;2023-02-15T05:04:32;7.13;;;1.35;;
70216;SDS011;65567;55.684;37.570;2023-02-15T05:06:58;7.60;;;1.73;;
70216;SDS011;65567;55.684;37.570;2023-02-15T05:09:25;5.20;;;1.40;;
70216;SDS011;65567;55.684;37.570;2023-02-15T05:11:51;5.57;;;1.13;;
70216;SDS011;65567;55.684;37.570;2023-02-15T05:14:17;4.28;;;1.30;;
70216;SDS011;65567;55.684;37.570;2023-02-15T05:16:43;6.70;;;1.30;;
70216;SDS011;65567;55.684;37.570;2023-02-15T05:19:09;2.33;;;1.02;;
70216;SDS011;65567;55.684;37.570;2023-02-15T05:21:35;5.15;;;1.40;;
70216;SDS011;65567;55.684;37.570;2023-02-15T05:24:02;4.50;;;1.30;;
70216;SDS011;65567;55.684;37.570;2023-02-15T05:26:48;4.97;;;1.42;;
70216;SDS011;65567;55.684;37.570;2023-02-15T05:29:32;4.15;;;1.27;;
70216;SDS011;65567;55.684;37.570;2023-02-15T05:31:59;3.90;;;1.17;;
70216;SDS011;65567;55.684;37.570;2023-02-15T05:34:25;6.53;;;1.38;;
70216;SDS011;65567;55.684;37.570;2023-02-15T05:36:51;4.88;;;1.67;;
70216;SDS011;65567;55.684;37.570;2023-02-15T05:39:18;4.43;;;1.13;;
70216;SDS011;65567;55.684;37.570;2023-02-15T05:41:44;5.18;;;1.38;;
70216;SDS011;65567;55.684;37.570;2023-02-15T05:44:10;6.03;;;2.03;;
70216;SDS011;65567;55.684;37.570;2023-02-15T05:46:36;5.57;;;2.08;;
70216;SDS011;65567;55.684;37.570;2023-02-15T05:49:02;2.83;;;0.77;;
70216;SDS011;65567;55.684;37.570;2023-02-15T05:51:28;3.83;;;1.38;;
70216;SDS011;65567;55.684;37.570;2023-02-15T05:53:54;5.53;;;1.60;;
70216;SDS011;65567;55.684;37.570;2023-02-15T05:56:20;5.13;;;1.98;;
70216;SDS011;65567;55.684;37.570;2023-02-15T05:58:46;4.10;;;1.58;;
70216;SDS011;65567;55.684;37.570;2023-02-15T06:01:16;5.47;;;1.90;;
70216;SDS011;65567;55.684;37.570;2023-02-15T06:03:44;4.75;;;1.52;;
70216;SDS011;65567;55.684;37.570;2023-02-15T06:06:11;7.63;;;2.05;;
70216;SDS011;65567;55.684;37.570;2023-02-15T06:08:40;6.32;;;1.63;;
70216;SDS011;65567;55.684;37.570;2023-02-15T06:11:06;7.05;;;1.88;;
70216;SDS011;65567;55.684;37.570;2023-02-15T06:13:34;5.05;;;2.00;;
70216;SDS011;65567;55.684;37.570;2023-02-15T06:16:01;5.30;;;1.90;;
70216;SDS011;65567;55.684;37.570;2023-02-15T06:18:30;6.35;;;1.80;;
70216;SDS011;65567;55.684;37.570;2023-02-15T06:20:56;7.93;;;2.08;;
70216;SDS011;65567;55.684;37.570;2023-02-15T06:23:22;7.97;;;2.50;;
70216;SDS011;65567;55.684;37.570;2023-02-15T06:25:48;6.95;;;1.90;;
70216;SDS011;65567;55.684;37.570;2023-02-15T06:28:14;6.68;;;1.85;;
70216;SDS011;65567;55.684;37.570;2023-02-15T06:30:40;9.18;;;3.45;;
70216;SDS011;65567;55.684;37.570;2023-02-15T06:33:07;6.10;;;2.20;;
70216;SDS011;65567;55.684;37.570;2023-02-15T06:35:33;8.98;;;2.55;;
70216;SDS011;65567;55.684;37.570;2023-02-15T06:37:59;9.38;;;2.53;;
70216;SDS011;65567;55.684;37.570;2023-02-15T06:40:25;6.88;;;2.25;;
70216;SDS011;65567;55.684;37.570;2023-02-15T06:42:51;6.72;;;1.98;;
70216;SDS011;65567;55.684;37.570;2023-02-15T06:45:18;6.07;;;2.30;;
70216;SDS011;65567;55.684;37.570;2023-02-15T06:47:44;11.43;;;3.85;;
70216;SDS011;65567;55.684;37.570;2023-02-15T06:50:11;9.23;;;2.47;;
70216;SDS011;65567;55.684;37.570;2023-02-15T06:52:37;5.13;;;1.88;;
70216;SDS011;65567;55.684;37.570;2023-02-15T06:55:03;4.70;;;2.10;;
70216;SDS011;65567;55.684;37.570;2023-02-15T06:57:30;4.32;;;2.10;;
70216;SDS011;65567;55.684;37.570;2023-02-15T06:59:57;16.90;;;3.40;;
70216;SDS011;65567;55.684;37.570;2023-02-15T07:02:23;6.72;;;2.15;;
70216;SDS011;65567;55.684;37.570;2023-02-15T07:04:49;8.50;;;2.22;;
70216;SDS011;65567;55.684;37.570;2023-02-15T07:07:16;4.95;;;2.13;;
70216;SDS011;65567;55.684;37.570;2023-02-15T07:09:42;5.13;;;2.63;;
70216;SDS011;65567;55.684;37.570;2023-02-15T07:12:08;8.38;;;2.47;;
70216;SDS011;65567;55.684;37.570;2023-02-15T07:14:53;6.00;;;2.05;;
70216;SDS011;65567;55.684;37.570;2023-02-15T07:17:19;3.95;;;1.58;;
70216;SDS011;65567;55.684;37.570;2023-02-15T07:19:46;4.38;;;2.13;;
70216;SDS011;65567;55.684;37.570;2023-02-15T07:22:12;4.50;;;1.90;;
70216;SDS011;65567;55.684;37.570;2023-02-15T07:24:38;4.95;;;1.83;;
70216;SDS011;65567;55.684;37.570;2023-02-15T07:27:06;8.45;;;2.10;;
70216;SDS011;65567;55.684;37.570;2023-02-15T07:29:33;7.63;;;2.03;;
70216;SDS011;65567;55.684;37.570;2023-02-15T07:31:59;4.25;;;1.73;;
70216;SDS011;65567;55.684;37.570;2023-02-15T07:34:25;6.05;;;2.05;;
70216;SDS011;65567;55.684;37.570;2023-02-15T07:36:51;7.63;;;2.00;;
70216;SDS011;65567;55.684;37.570;2023-02-15T07:39:19;5.65;;;1.70;;
70216;SDS011;65567;55.684;37.570;2023-02-15T07:41:45;5.97;;;2.17;;
70216;SDS011;65567;55.684;37.570;2023-02-15T07:44:11;7.07;;;2.40;;
70216;SDS011;65567;55.684;37.570;2023-02-15T07:46:39;4.28;;;1.95;;
70216;SDS011;65567;55.684;37.570;2023-02-15T07:49:05;5.80;;;2.10;;
70216;SDS011;65567;55.684;37.570;2023-02-15T07:51:33;8.55;;;2.55;;
70216;SDS011;65567;55.684;37.570;2023-02-15T07:53:59;9.27;;;2.58;;
70216;SDS011;65567;55.684;37.570;2023-02-15T07:56:25;6.35;;;2.13;;
70216;SDS011;65567;55.684;37.570;2023-02-15T07:58:51;6.93;;;2.45;;
70216;SDS011;65567;55.684;37.570;2023-02-15T08:01:25;8.63;;;2.70;;
70216;SDS011;65567;55.684;37.570;2023-02-15T08:03:53;5.63;;;2.80;;
70216;SDS011;65567;55.684;37.570;2023-02-15T08:06:21;7.03;;;2.33;;
70216;SDS011;65567;55.684;37.570;2023-02-15T08:08:49;9.45;;;2.40;;
70216;SDS011;65567;55.684;37.570;2023-02-15T08:11:16;7.80;;;2.70;;
70216;SDS011;65567;55.684;37.570;2023-02-15T08:13:53;7.60;;;3.00;;
70216;SDS011;65567;55.684;37.570;2023-02-15T08:16:30;10.20;;;2.90;;
70216;SDS011;65567;55.684;37.570;2023-02-15T08:19:15;9.23;;;3.10;;
70216;SDS011;65567;55.684;37.570;2023-02-15T08:21:43;9.32;;;3.05;;
70216;SDS011;65567;55.684;37.570;2023-02-15T08:24:12;9.18;;;2.60;;
70216;SDS011;65567;55.684;37.570;2023-02-15T08:26:40;7.47;;;2.38;;
70216;SDS011;65567;55.684;37.570;2023-02-15T08:29:07;4.47;;;1.83;;
70216;SDS011;65567;55.684;37.570;2023-02-15T08:31:34;5.57;;;2.45;;
70216;SDS011;65567;55.684;37.570;2023-02-15T08:34:02;5.90;;;1.67;;
70216;SDS011;65567;55.684;37.570;2023-02-15T08:36:29;3.30;;;1.40;;
70216;SDS011;65567;55.684;37.570;2023-02-15T08:39:00;5.72;;;2.00;;
70216;SDS011;65567;55.684;37.570;2023-02-15T08:41:29;5.90;;;2.25;;
70216;SDS011;65567;55.684;37.570;2023-02-15T08:43:58;5.13;;;1.85;;
70216;SDS011;65567;55.684;37.570;2023-02-15T08:46:26;5.07;;;1.58;;
70216;SDS011;65567;55.684;37.570;2023-02-15T08:48:54;6.68;;;2.60;;
70216;SDS011;65567;55.684;37.570;2023-02-15T08:51:22;5.25;;;1.63;;
70216;SDS011;65567;55.684;37.570;2023-02-15T08:53:52;4.60;;;1.90;;
70216;SDS011;65567;55.684;37.570;2023-02-15T08:56:21;5.80;;;2.08;;
70216;SDS011;65567;55.684;37.570;2023-02-15T08:58:49;6.07;;;2.60;;
70216;SDS011;65567;55.684;37.570;2023-02-15T09:01:17;4.60;;;2.00;;
70216;SDS011;65567;55.684;37.570;2023-02-15T09:03:46;5.50;;;1.92;;
70216;SDS011;65567;55.684;37.570;2023-02-15T09:06:16;4.85;;;2.75;;
70216;SDS011;65567;55.684;37.570;2023-02-15T09:08:43;3.75;;;1.90;;
70216;SDS011;65567;55.684;37.570;2023-02-15T09:11:11;3.42;;;1.23;;
70216;SDS011;65567;55.684;37.570;2023-02-15T09:13:58;5.22;;;1.48;;
70216;SDS011;65567;55.684;37.570;2023-02-15T09:16:27;2.40;;;1.05;;
70216;SDS011;65567;55.684;37.570;2023-02-15T09:18:55;4.20;;;1.60;;
70216;SDS011;65567;55.684;37.570;2023-02-15T09:21:23;3.15;;;1.38;;
70216;SDS011;65567;55.684;37.570;2023-02-15T09:23:51;4.50;;;1.75;;
70216;SDS011;65567;55.684;37.570;2023-02-15T09:26:22;4.50;;;1.63;;
70216;SDS011;65567;55.684;37.570;2023-02-15T09:28:53;3.58;;;1.88;;
70216;SDS011;65567;55.684;37.570;2023-02-15T09:31:22;4.45;;;1.73;;
70216;SDS011;65567;55.684;37.570;2023-02-15T09:33:51;4.13;;;1.73;;
70216;SDS011;65567;55.684;37.570;2023-02-15T09:36:25;4.88;;;1.73;;
70216;SDS011;65567;55.684;37.570;2023-02-15T09:39:03;2.83;;;1.15;;
70216;SDS011;65567;55.684;37.570;2023-02-15T09:55:29;2.60;;;1.50;;
70216;SDS011;65567;55.684;37.570;2023-02-15T10:04:09;4.45;;;1.77;;
70216;SDS011;65567;55.684;37.570;2023-02-15T10:09:39;4.38;;;1.38;;
70216;SDS011;65567;55.684;37.570;2023-02-15T10:13:04;2.80;;;1.40;;
70216;SDS011;65567;55.684;37.570;2023-02-15T10:23:23;3.55;;;1.25;;
70216;SDS011;65567;55.684;37.570;2023-02-15T10:26:16;4.65;;;1.63;;
70216;SDS011;65567;55.684;37.570;2023-02-15T10:28:49;3.97;;;2.00;;
70216;SDS011;65567;55.684;37.570;2023-02-15T10:33:54;5.53;;;1.48;;
70216;SDS011;65567;55.684;37.570;2023-02-15T10:42:15;3.97;;;1.80;;
70216;SDS011;65567;55.684;37.570;2023-02-15T10:45:23;5.82;;;2.00;;
70216;SDS011;65567;55.684;37.570;2023-02-15T10:51:08;5.05;;;1.73;;
70216;SDS011;65567;55.684;37.570;2023-02-15T10:53:52;5.07;;;1.60;;
70216;SDS011;65567;55.684;37.570;2023-02-15T10:56:40;3.67;;;1.13;;
70216;SDS011;65567;55.684;37.570;2023-02-15T10:59:29;2.67;;;1.20;;
70216;SDS011;65567;55.684;37.570;2023-02-15T11:07:47;4.25;;;1.10;;
70216;SDS011;65567;55.684;37.570;2023-02-15T11:13:17;3.40;;;1.45;;
70216;SDS011;65567;55.684;37.570;2023-02-15T11:21:04;3.47;;;1.15;;
70216;SDS011;65567;55.684;37.570;2023-02-15T11:23:40;4.28;;;1.27;;
70216;SDS011;65567;55.684;37.570;2023-02-15T11:26:29;2.28;;;0.70;;
70216;SDS011;65567;55.684;37.570;2023-02-15T11:29:06;2.63;;;0.90;;
70216;SDS011;65567;55.684;37.570;2023-02-15T11:32:21;2.17;;;1.00;;
70216;SDS011;65567;55.684;37.570;2023-02-15T11:34:50;4.18;;;1.92;;
70216;SDS011;65567;55.684;37.570;2023-02-15T11:37:32;3.28;;;1.38;;
70216;SDS011;65567;55.684;37.570;2023-02-15T11:40:02;4.93;;;1.15;;
70216;SDS011;65567;55.684;37.570;2023-02-15T11:42:58;2.55;;;1.00;;
70216;SDS011;65567;55.684;37.570;2023-02-15T11:45:30;2.28;;;1.23;;
70216;SDS011;65567;55.684;37.570;2023-02-15T11:47:59;5.40;;;1.15;;
70216;SDS011;65567;55.684;37.570;2023-02-15T11:50:33;3.50;;;1.20;;
70216;SDS011;65567;55.684;37.570;2023-02-15T11:53:04;2.75;;;1.10;;
70216;SDS011;65567;55.684;37.570;2023-02-15T11:55:39;2.42;;;1.10;;
70216;SDS011;65567;55.684;37.570;2023-02-15T12:00:55;2.55;;;0.90;;
70216;SDS011;65567;55.684;37.570;2023-02-15T12:03:39;2.83;;;1.13;;
70216;SDS011;65567;55.684;37.570;2023-02-15T12:06:16;2.80;;;0.75;;
70216;SDS011;65567;55.684;37.570;2023-02-15T12:08:51;2.42;;;1.00;;
70216;SDS011;65567;55.684;37.570;2023-02-15T12:11:31;2.38;;;1.20;;
70216;SDS011;65567;55.684;37.570;2023-02-15T12:14:02;5.35;;;1.60;;
70216;SDS011;65567;55.684;37.570;2023-02-15T12:16:40;5.65;;;1.45;;
70216;SDS011;65567;55.684;37.570;2023-02-15T12:19:31;6.35;;;1.52;;
70216;SDS011;65567;55.684;37.570;2023-02-15T12:22:02;3.55;;;1.45;;
70216;SDS011;65567;55.684;37.570;2023-02-15T12:24:31;5.88;;;1.50;;
70216;SDS011;65567;55.684;37.570;2023-02-15T12:27:15;4.47;;;1.20;;
70216;SDS011;65567;55.684;37.570;2023-02-15T12:29:48;2.33;;;1.17;;
70216;SDS011;65567;55.684;37.570;2023-02-15T12:32:18;3.33;;;1.20;;
70216;SDS011;65567;55.684;37.570;2023-02-15T12:34:48;4.55;;;1.42;;
70216;SDS011;65567;55.684;37.570;2023-02-15T12:40:18;3.65;;;1.27;;
70216;SDS011;65567;55.684;37.570;2023-02-15T12:42:53;3.30;;;1.15;;
70216;SDS011;65567;55.684;37.570;2023-02-15T12:45:21;5.47;;;1.25;;
70216;SDS011;65567;55.684;37.570;2023-02-15T12:50:48;2.77;;;0.90;;
70216;SDS011;65567;55.684;37.570;2023-02-15T12:53:17;2.47;;;1.05;;
70216;SDS011;65567;55.684;37.570;2023-02-15T12:56:09;1.80;;;0.80;;
70216;SDS011;65567;55.684;37.570;2023-02-15T12:58:37;2.40;;;0.90;;
70216;SDS011;65567;55.684;37.570;2023-02-15T13:03:40;2.22;;;0.95;;
70216;SDS011;65567;55.684;37.570;2023-02-15T13:06:21;1.60;;;0.65;;
70216;SDS011;65567;55.684;37.570;2023-02-15T13:08:52;4.28;;;1.00;;
70216;SDS011;65567;55.684;37.570;2023-02-15T13:11:23;3.22;;;1.25;;
70216;SDS011;65567;55.684;37.570;2023-02-15T13:14:01;1.77;;;0.80;;
70216;SDS011;65567;55.684;37.570;2023-02-15T13:16:30;3.22;;;1.00;;
70216;SDS011;65567;55.684;37.570;2023-02-15T13:19:01;1.27;;;0.60;;
70216;SDS011;65567;55.684;37.570;2023-02-15T13:21:36;2.45;;;1.02;;
70216;SDS011;65567;55.684;37.570;2023-02-15T13:26:46;2.28;;;1.10;;
70216;SDS011;65567;55.684;37.570;2023-02-15T13:29:22;2.50;;;1.30;;
70216;SDS011;65567;55.684;37.570;2023-02-15T13:31:50;2.88;;;0.80;;
70216;SDS011;65567;55.684;37.570;2023-02-15T13:34:21;3.85;;;1.17;;
70216;SDS011;65567;55.684;37.570;2023-02-15T13:42:49;4.28;;;1.15;;
70216;SDS011;65567;55.684;37.570;2023-02-15T13:48:11;1.70;;;0.90;;
70216;SDS011;65567;55.684;37.570;2023-02-15T13:53:41;3.88;;;0.98;;
70216;SDS011;65567;55.684;37.570;2023-02-15T13:59:38;5.15;;;0.73;;
70216;SDS011;65567;55.684;37.570;2023-02-15T14:10:30;2.22;;;0.80;;
70216;SDS011;65567;55.684;37.570;2023-02-15T14:18:26;1.98;;;0.70;;
70216;SDS011;65567;55.684;37.570;2023-02-15T14:23:41;1.50;;;0.52;;
70216;SDS011;65567;55.684;37.570;2023-02-15T14:29:04;2.22;;;0.90;;
70216;SDS011;65567;55.684;37.570;2023-02-15T14:31:41;3.13;;;1.00;;
70216;SDS011;65567;55.684;37.570;2023-02-15T14:34:31;1.52;;;0.85;;
70216;SDS011;65567;55.684;37.570;2023-02-15T14:37:12;3.63;;;0.90;;
70216;SDS011;65567;55.684;37.570;2023-02-15T14:48:01;3.85;;;1.30;;
70216;SDS011;65567;55.684;37.570;2023-02-15T14:50:38;2.45;;;0.98;;
70216;SDS011;65567;55.684;37.570;2023-02-15T14:53:15;1.92;;;0.70;;
70216;SDS011;65567;55.684;37.570;2023-02-15T14:56:03;3.55;;;1.10;;
70216;SDS011;65567;55.684;37.570;2023-02-15T14:58:58;2.28;;;0.68;;
70216;SDS011;65567;55.684;37.570;2023-02-15T15:01:34;1.92;;;0.90;;
70216;SDS011;65567;55.684;37.570;2023-02-15T15:04:06;3.45;;;1.15;;
70216;SDS011;65567;55.684;37.570;2023-02-15T15:09:45;2.80;;;1.10;;
70216;SDS011;65567;55.684;37.570;2023-02-15T15:14:51;1.88;;;0.82;;
70216;SDS011;65567;55.684;37.570;2023-02-15T15:20:37;2.13;;;0.70;;
70216;SDS011;65567;55.684;37.570;2023-02-15T15:39:21;2.80;;;0.98;;
70216;SDS011;65567;55.684;37.570;2023-02-15T15:48:19;1.73;;;1.00;;
70216;SDS011;65567;55.684;37.570;2023-02-15T15:50:34;2.15;;;0.75;;
70216;SDS011;65567;55.684;37.570;2023-02-15T15:53:05;3.20;;;0.98;;
70216;SDS011;65567;55.684;37.570;2023-02-15T15:55:39;2.20;;;1.10;;
70216;SDS011;65567;55.684;37.570;2023-02-15T15:58:06;1.92;;;0.60;;
70216;SDS011;65567;55.684;37.570;2023-02-15T16:03:30;2.58;;;1.20;;
70216;SDS011;65567;55.684;37.570;2023-02-15T16:05:56;3.30;;;1.30;;
70216;SDS011;65567;55.684;37.570;2023-02-15T16:08:26;2.72;;;1.00;;
70216;SDS011;65567;55.684;37.570;2023-02-15T16:10:57;3.72;;;1.35;;
70216;SDS011;65567;55.684;37.570;2023-02-15T16:13:24;2.83;;;1.05;;
70216;SDS011;65567;55.684;37.570;2023-02-15T16:15:54;3.13;;;1.23;;
70216;SDS011;65567;55.684;37.570;2023-02-15T16:18:23;2.05;;;1.00;;
70216;SDS011;65567;55.684;37.570;2023-02-15T16:29:25;3.28;;;1.00;;
70216;SDS011;65567;55.684;37.570;2023-02-15T16:32:36;1.65;;;0.75;;
70216;SDS011;65567;55.684;37.570;2023-02-15T16:34:56;3.38;;;0.93;;
70216;SDS011;65567;55.684;37.570;2023-02-15T16:37:31;2.90;;;1.13;;
70216;SDS011;65567;55.684;37.570;2023-02-15T16:39:59;1.45;;;0.63;;
70216;SDS011;65567;55.684;37.570;2023-02-15T16:42:25;1.58;;;0.73;;
70216;SDS011;65567;55.684;37.570;2023-02-15T16:45:01;2.42;;;0.75;;
70216;SDS011;65567;55.684;37.570;2023-02-15T16:47:41;1.67;;;0.90;;
70216;SDS011;65567;55.684;37.570;2023-02-15T16:50:21;1.58;;;0.60;;
70216;SDS011;65567;55.684;37.570;2023-02-15T16:52:49;2.70;;;0.90;;
70216;SDS011;65567;55.684;37.570;2023-02-15T16:55:22;2.95;;;0.80;;
70216;SDS011;65567;55.684;37.570;2023-02-15T16:57:50;2.63;;;0.90;;
70216;SDS011;65567;55.684;37.570;2023-02-15T17:00:28;2.55;;;0.93;;
70216;SDS011;65567;55.684;37.570;2023-02-15T17:13:30;1.90;;;1.00;;
70216;SDS011;65567;55.684;37.570;2023-02-15T17:18:43;2.70;;;1.00;;
70216;SDS011;65567;55.684;37.570;2023-02-15T17:21:12;4.22;;;1.45;;
70216;SDS011;65567;55.684;37.570;2023-02-15T17:23:46;2.40;;;1.00;;
70216;SDS011;65567;55.684;37.570;2023-02-15T17:26:15;3.35;;;1.13;;
70216;SDS011;65567;55.684;37.570;2023-02-15T17:28:46;3.05;;;0.95;;
70216;SDS011;65567;55.684;37.570;2023-02-15T17:31:17;1.73;;;0.90;;
70216;SDS011;65567;55.684;37.570;2023-02-15T17:33:45;2.95;;;0.90;;
70216;SDS011;65567;55.684;37.570;2023-02-15T17:36:18;2.63;;;1.00;;
70216;SDS011;65567;55.684;37.570;2023-02-15T17:41:33;2.85;;;0.98;;
70216;SDS011;65567;55.684;37.570;2023-02-15T17:44:02;2.92;;;0.80;;
70216;SDS011;65567;55.684;37.570;2023-02-15T17:46:30;1.92;;;0.88;;
70216;SDS011;65567;55.684;37.570;2023-02-15T17:49:00;2.30;;;1.10;;
70216;SDS011;65567;55.684;37.570;2023-02-15T17:51:28;2.60;;;0.90;;
70216;SDS011;65567;55.684;37.570;2023-02-15T17:53:54;3.70;;;1.10;;
70216;SDS011;65567;55.684;37.570;2023-02-15T17:56:39;2.78;;;1.08;;
70216;SDS011;65567;55.684;37.570;2023-02-15T17:59:06;2.45;;;0.90;;
70216;SDS011;65567;55.684;37.570;2023-02-15T18:01:33;4.18;;;1.00;;
70216;SDS011;65567;55.684;37.570;2023-02-15T18:04:19;1.88;;;0.90;;
70216;SDS011;65567;55.684;37.570;2023-02-15T18:07:07;1.60;;;0.90;;
70216;SDS011;65567;55.684;37.570;2023-02-15T18:09:52;1.55;;;0.88;;
70216;SDS011;65567;55.684;37.570;2023-02-15T18:12:37;1.48;;;0.85;;
70216;SDS011;65567;55.684;37.570;2023-02-15T18:15:04;2.60;;;1.00;;
70216;SDS011;65567;55.684;37.570;2023-02-15T18:17:32;2.65;;;1.23;;
70216;SDS011;65567;55.684;37.570;2023-02-15T18:20:04;2.58;;;0.80;;
70216;SDS011;65567;55.684;37.570;2023-02-15T18:22:35;4.18;;;1.13;;
70216;SDS011;65567;55.684;37.570;2023-02-15T18:25:01;2.75;;;0.93;;